Aeroporto :
LOGIN :

Iscrizione | Disclaimer

   EN    FR    IT 

 










Sommario :    VFR   VFR Marginale   IFR   IFR Intensivo   IFR Molto Intensivo
Visibilità : 
Base nubi : 
>= 8 km
>= 3000ft
5 / 8 km
1000 / 3000 ft
1500m / 5 km
500 / 1000 ft
800 / 1500m
200 / 500 ft
< 800m
< 200 ft
Simboli :   Temporali  Nebbia  Neve Forte  Precipitazioni Forti  Vento > 20 kt
SIGMETs :   Varie  Temporali  Ghiacco  Turbolenza  Onda orograficha  Ceneri Vulcaniche






- Altitudine del aeroporto : 75 ft
- Codice IATA : YEO


EGDY - RNAS Yeovilton

ULTIMO METAR :
  • 250920Z 32015KT 9999 FEW020TCU 12/05 Q1007 NOSIG RMK BLU BLU

METARs OBSOLETI :
  • 250850Z 31014KT 9999 FEW014 11/06 Q1006 NOSIG RMK BLU BLU
  • 250819Z 30016KT 9999 FEW014 11/06 Q1006 NOSIG RMK BLU BLU
  • 250750Z 31014KT 9999 FEW014 10/06 Q1005 NOSIG RMK BLU BLU
  • 250719Z 31010KT 9999 FEW014 09/06 Q1004 NOSIG RMK BLU BLU
  • 250650Z 30007KT 9999 FEW014 08/06 Q1004 NOSIG RMK BLU BLU

TAF TAF EGDY
Valido dal 25 a 09 ore il 25 a 18 ore UTC


250731Z 2509/2518 33015G25KT 9999 FEW030
PROB30
TEMPO 2511/2518 31017G30KT



MetMap, La meteo Aeronautica in un colpo d'occhio ! - Copyright ORBIFLY Dicembre 2007 - Disclaimer

ORBIFLY MET'MAP TEAM :

Programmazione e sviluppo : Alexandra Zaïnal
Concezione : Baudouin d'Aumeries
Aiuto per la programmazione : Marc-Olivier Méhu
Supporto tecnico e logistico : Manuel Goepfert
Aiuto per la traduzione : Arnaldo La Scala

Contatto : metmap@orbifly.com




FONTI E CREDITI :

   NOAA